Sara Borchard — V2BY8 — position and weather

sailwx.info

Track history (hours):
 
Tides and Currents Weather Stations Pressure Air Temp Water Temp Dewpoint Dewpoint Depression Visibility Wind Speed Wind Dir Waves Ship Positions

Sara Borchard

Last reported at 2015-May-30 03:05 UTC. Time now 2015-May-30 22:27 UTC.
Position N 38°46' E 015°02'.

Length 134 m; draft 8.1 m.

Type: Ship (hazmat cat A). MMSI: 304962000.

Date/timePositionNaut miles runAvg speedWind from/ knotsBaromVisibWave heightAir tempDewpointWater temp
2015-May-30 03:05N 38°46' E 015°02'916.9
2015-May-30 02:34N 38°52' E 014°54'5316.5
2015-May-29 23:20N 39°28' E 014°03'1316.6
2015-May-29 22:33N 39°37' E 013°51'1916.6
2015-May-29 21:26N 39°49' E 013°33'6516.7
2015-May-29 17:33N 40°33' E 012°30'1816.8
2015-May-29 16:30N 40°45' E 012°13'5016.7
2015-May-29 13:30N 41°19' E 011°24'3516.6
2015-May-29 11:22N 41°43' E 010°49'1716.4
2015-May-29 10:21N 41°54' E 010°33'1516.2
2015-May-29 09:26N 42°04' E 010°18'3516.0
2015-May-29 07:17N 42°32' E 009°52'3216.3
2015-May-29 05:21N 43°02' E 009°38'1316.3
2015-May-29 04:33N 43°15' E 009°33'1616.2
2015-May-29 03:33N 43°30' E 009°26'1616.1
2015-May-29 02:33N 43°45' E 009°17'1615.9
2015-May-29 01:33N 43°60' E 009°09'1616.3
2015-May-29 00:33N 44°15' E 009°01'1110.6
2015-May-28 23:33N 44°24' E 008°54'0 0.0
2015-May-28 22:33N 44°24' E 008°54'0 0.0
2015-May-28 21:33N 44°24' E 008°54'0 0.0
2015-May-28 20:32N 44°24' E 008°54'0 0.0
2015-May-28 19:32N 44°24' E 008°54'0 0.0
2015-May-28 18:32N 44°24' E 008°54'0 0.0
2015-May-28 17:31N 44°24' E 008°54'0 0.0
2015-May-28 16:31N 44°24' E 008°54'0 0.0
2015-May-28 15:33N 44°24' E 008°54'0 0.0
2015-May-28 14:33N 44°24' E 008°54'4 4.3
2015-May-28 13:34N 44°22' E 008°59'2 2.4
2015-May-28 12:33N 44°19' E 008°60'1515.4
2015-May-28 11:33N 44°09' E 008°44'1716.7
2015-May-28 10:33N 43°57' E 008°28'1716.4
2015-May-28 09:31N 43°45' E 008°11'1616.4
2015-May-28 08:33N 43°35' E 007°54'2016.4
2015-May-28 07:22N 43°25' E 007°31'1516.5
2015-May-28 06:29N 43°17' E 007°14'1516.2
2015-May-28 05:32N 43°09' E 006°56'3115.6
2015-May-28 03:32N 42°55' E 006°17'3816.0
2015-May-28 01:10N 43°05' E 005°27'1016.6
2015-May-28 00:33N 43°09' E 005°15'1111.3
2015-May-27 23:33N 43°21' E 005°18'2 1.4
2015-May-27 22:23N 43°21' E 005°20'0 0.0
2015-May-27 21:04N 43°21' E 005°20'0 0.0
2015-May-27 20:28N 43°21' E 005°20'0 0.0
2015-May-27 19:33N 43°21' E 005°20'0 0.0
2015-May-27 18:30N 43°21' E 005°20'0 0.0
2015-May-27 17:32N 43°21' E 005°20'0 0.0
2015-May-27 16:26N 43°21' E 005°20'0 0.0
2015-May-27 15:07N 43°21' E 005°20'0 0.0
2015-May-27 14:22N 43°21' E 005°20'5 6.7
2015-May-27 13:33N 43°18' E 005°14'1111.2
2015-May-27 12:33N 43°07' E 005°09'1514.9
2015-May-27 11:33N 42°57' E 004°55'1615.5
2015-May-27 10:33N 42°45' E 004°41'1515.2
2015-May-27 09:32N 42°33' E 004°27'10514.6
2015-May-27 02:20N 41°27' E 002°37'1316.5
2015-May-27 01:33N 41°20' E 002°22'9 8.8
2015-May-27 00:31N 41°20' E 002°10'1 1.1
2015-May-26 23:26N 41°21' E 002°10'0 0.0
2015-May-26 22:32N 41°21' E 002°10'0 0.0
2015-May-26 21:25N 41°21' E 002°10'0 0.0
2015-May-26 20:31N 41°21' E 002°10'0 0.0
2015-May-26 18:12N 41°21' E 002°10'0 0.0
2015-May-26 17:30N 41°21' E 002°10'0 0.0
2015-May-26 16:23N 41°21' E 002°10'0 0.0
2015-May-26 15:23N 41°21' E 002°10'5110.6
2015-May-26 10:32N 41°17' E 003°18'45015.9
2015-May-25 06:16N 40°38' E 013°12'1217.3
2015-May-25 05:33N 40°35' E 013°28'1717.2
2015-May-25 04:34N 40°31' E 013°50'1717.0
2015-May-25 03:34N 40°28' E 014°12'1817.6
2015-May-25 02:32N 40°35' E 014°34'7 0.4
2015-May-24 10:06N 40°34' E 014°42'815.5
2015-May-24 09:33N 40°25' E 014°44'8416.5
2015-May-24 04:26N 39°05' E 015°18'1516.6
2015-May-24 03:33N 38°51' E 015°25'1716.8
2015-May-24 02:33N 38°36' E 015°33'1717.0
2015-May-24 01:33N 38°20' E 015°41'1414.3
2015-May-24 00:34N 38°07' E 015°36'1616.2
2015-May-23 23:33N 37°51' E 015°42'1716.2
2015-May-23 22:31N 37°42' E 015°60'  
2015-May-20 16:27N 32°01' E 031°45'1516.7
2015-May-20 15:34N 32°02' E 032°03'1716.9
2015-May-20 14:33N 32°01' E 032°23'1716.9
2015-May-20 13:33N 31°60' E 032°43'1717.0
2015-May-20 12:33N 31°58' E 033°03'1717.0
2015-May-20 11:33N 31°57' E 033°23'1717.0
2015-May-20 10:33N 31°55' E 033°42'1716.5
2015-May-20 09:33N 31°54' E 034°02'1616.4
2015-May-20 08:33N 31°53' E 034°21'15 7.3
2015-May-20 06:25N 31°50' E 034°39'  
Track history (hours):
 
Tides and Currents Weather Stations Pressure Air Temp Water Temp Dewpoint Dewpoint Depression Visibility Wind Speed Wind Dir Waves Ship Positions

Sara Borchard

Last reported at 2015-May-30 03:05 UTC. Time now 2015-May-30 22:27 UTC.
Position N 38°46' E 015°02'.

Length 134 m; draft 8.1 m.

Type: Ship (hazmat cat A). MMSI: 304962000.

Date/timePositionNaut miles runAvg speedWind from/ knotsBaromVisibWave heightAir tempDewpointWater temp
2015-May-30 03:05N 38°46' E 015°02'916.9
2015-May-30 02:34N 38°52' E 014°54'5316.5
2015-May-29 23:20N 39°28' E 014°03'1316.6
2015-May-29 22:33N 39°37' E 013°51'1916.6
2015-May-29 21:26N 39°49' E 013°33'6516.7
2015-May-29 17:33N 40°33' E 012°30'1816.8
2015-May-29 16:30N 40°45' E 012°13'5016.7
2015-May-29 13:30N 41°19' E 011°24'3516.6
2015-May-29 11:22N 41°43' E 010°49'1716.4
2015-May-29 10:21N 41°54' E 010°33'1516.2
2015-May-29 09:26N 42°04' E 010°18'3516.0
2015-May-29 07:17N 42°32' E 009°52'3216.3
2015-May-29 05:21N 43°02' E 009°38'1316.3
2015-May-29 04:33N 43°15' E 009°33'1616.2
2015-May-29 03:33N 43°30' E 009°26'1616.1
2015-May-29 02:33N 43°45' E 009°17'1615.9
2015-May-29 01:33N 43°60' E 009°09'1616.3
2015-May-29 00:33N 44°15' E 009°01'1110.6
2015-May-28 23:33N 44°24' E 008°54'0 0.0
2015-May-28 22:33N 44°24' E 008°54'0 0.0
2015-May-28 21:33N 44°24' E 008°54'0 0.0
2015-May-28 20:32N 44°24' E 008°54'0 0.0
2015-May-28 19:32N 44°24' E 008°54'0 0.0
2015-May-28 18:32N 44°24' E 008°54'0 0.0
2015-May-28 17:31N 44°24' E 008°54'0 0.0
2015-May-28 16:31N 44°24' E 008°54'0 0.0
2015-May-28 15:33N 44°24' E 008°54'0 0.0
2015-May-28 14:33N 44°24' E 008°54'4 4.3
2015-May-28 13:34N 44°22' E 008°59'2 2.4
2015-May-28 12:33N 44°19' E 008°60'1515.4
2015-May-28 11:33N 44°09' E 008°44'1716.7
2015-May-28 10:33N 43°57' E 008°28'1716.4
2015-May-28 09:31N 43°45' E 008°11'1616.4
2015-May-28 08:33N 43°35' E 007°54'2016.4
2015-May-28 07:22N 43°25' E 007°31'1516.5
2015-May-28 06:29N 43°17' E 007°14'1516.2
2015-May-28 05:32N 43°09' E 006°56'3115.6
2015-May-28 03:32N 42°55' E 006°17'3816.0
2015-May-28 01:10N 43°05' E 005°27'1016.6
2015-May-28 00:33N 43°09' E 005°15'1111.3
2015-May-27 23:33N 43°21' E 005°18'2 1.4
2015-May-27 22:23N 43°21' E 005°20'0 0.0
2015-May-27 21:04N 43°21' E 005°20'0 0.0
2015-May-27 20:28N 43°21' E 005°20'0 0.0
2015-May-27 19:33N 43°21' E 005°20'0 0.0
2015-May-27 18:30N 43°21' E 005°20'0 0.0
2015-May-27 17:32N 43°21' E 005°20'0 0.0
2015-May-27 16:26N 43°21' E 005°20'0 0.0
2015-May-27 15:07N 43°21' E 005°20'0 0.0
2015-May-27 14:22N 43°21' E 005°20'5 6.7
2015-May-27 13:33N 43°18' E 005°14'1111.2
2015-May-27 12:33N 43°07' E 005°09'1514.9
2015-May-27 11:33N 42°57' E 004°55'1615.5
2015-May-27 10:33N 42°45' E 004°41'1515.2
2015-May-27 09:32N 42°33' E 004°27'10514.6
2015-May-27 02:20N 41°27' E 002°37'1316.5
2015-May-27 01:33N 41°20' E 002°22'9 8.8
2015-May-27 00:31N 41°20' E 002°10'1 1.1
2015-May-26 23:26N 41°21' E 002°10'0 0.0
2015-May-26 22:32N 41°21' E 002°10'0 0.0
2015-May-26 21:25N 41°21' E 002°10'0 0.0
2015-May-26 20:31N 41°21' E 002°10'0 0.0
2015-May-26 18:12N 41°21' E 002°10'0 0.0
2015-May-26 17:30N 41°21' E 002°10'0 0.0
2015-May-26 16:23N 41°21' E 002°10'0 0.0
2015-May-26 15:23N 41°21' E 002°10'5110.6
2015-May-26 10:32N 41°17' E 003°18'45015.9
2015-May-25 06:16N 40°38' E 013°12'1217.3
2015-May-25 05:33N 40°35' E 013°28'1717.2
2015-May-25 04:34N 40°31' E 013°50'1717.0
2015-May-25 03:34N 40°28' E 014°12'1817.6
2015-May-25 02:32N 40°35' E 014°34'7 0.4
2015-May-24 10:06N 40°34' E 014°42'815.5
2015-May-24 09:33N 40°25' E 014°44'8416.5
2015-May-24 04:26N 39°05' E 015°18'1516.6
2015-May-24 03:33N 38°51' E 015°25'1716.8
2015-May-24 02:33N 38°36' E 015°33'1717.0
2015-May-24 01:33N 38°20' E 015°41'1414.3
2015-May-24 00:34N 38°07' E 015°36'1616.2
2015-May-23 23:33N 37°51' E 015°42'1716.2
2015-May-23 22:31N 37°42' E 015°60'  
2015-May-20 16:27N 32°01' E 031°45'1516.7
2015-May-20 15:34N 32°02' E 032°03'1716.9
2015-May-20 14:33N 32°01' E 032°23'1716.9
2015-May-20 13:33N 31°60' E 032°43'1717.0
2015-May-20 12:33N 31°58' E 033°03'1717.0
2015-May-20 11:33N 31°57' E 033°23'1717.0
2015-May-20 10:33N 31°55' E 033°42'1716.5
2015-May-20 09:33N 31°54' E 034°02'1616.4
2015-May-20 08:33N 31°53' E 034°21'15 7.3
2015-May-20 06:25N 31°50' E 034°39'  

Dump ship's entire track history